Time;durP1;ratioP1;P1;durP2;ratioP2;P2;SDS_P1;SDS_P2;PMS_P1;PMS_P2;Temp;Humidity;BMP_temperature;BMP_pressure;BME280_temperature;BME280_humidity;BME280_pressure;Samples;Min_cycle;Max_cycle;Signal;HPM_P1;HPM_P2
2021/10/22 00:02:21;;;;;;;0.70;0.60;;;;;;;7.35;100.00;-20882.28;5034293;28;20473;-77
2021/10/22 00:04:48;;;;;;;0.60;0.60;;;;;;;7.39;100.00;-20883.41;5034195;28;20420;-77
2021/10/22 00:07:16;;;;;;;0.60;0.60;;;;;;;7.55;100.00;-20887.56;5034762;28;20440;-76
2021/10/22 00:09:44;;;;;;;0.70;0.60;;;;;;;7.52;100.00;-20886.88;5033873;28;20446;-76
2021/10/22 00:12:11;;;;;;;0.60;0.60;;;;;;;7.49;100.00;-20886.03;5035405;28;20430;-76
2021/10/22 00:14:44;;;;;;;0.70;0.60;;;;;;;7.63;100.00;-20889.78;5035892;28;20638;-77
2021/10/22 00:17:11;;;;;;;0.70;0.70;;;;;;;7.63;100.00;-20889.94;5034171;28;20876;-77
2021/10/22 00:19:39;;;;;;;0.70;0.60;;;;;;;7.61;100.00;-20889.25;5033964;28;20960;-76
2021/10/22 00:22:06;;;;;;;0.60;0.60;;;;;;;7.67;100.00;-20891.03;5035514;28;20449;-77
2021/10/22 00:24:33;;;;;;;0.67;0.60;;;;;;;7.57;100.00;-20888.28;5034502;28;20441;-76
2021/10/22 00:27:00;;;;;;;0.70;0.60;;;;;;;7.56;100.00;-20888.00;5035524;28;20540;-77
2021/10/22 00:29:28;;;;;;;0.63;0.50;;;;;;;7.60;100.00;-20889.09;5036200;28;20468;-77
2021/10/22 00:31:56;;;;;;;0.70;0.60;;;;;;;7.56;100.00;-20888.00;5036410;28;20909;-77
2021/10/22 00:34:24;;;;;;;0.60;0.53;;;;;;;7.67;100.00;-20891.03;5036342;28;20410;-75
2021/10/22 00:37:00;;;;;;;0.70;0.70;;;;;;;7.68;100.00;-20891.31;5034922;28;20405;-77
2021/10/22 00:39:33;;;;;;;0.60;0.60;;;;;;;7.76;100.00;-20893.41;5033351;28;20478;-77
2021/10/22 00:42:08;;;;;;;0.70;0.60;;;;;;;7.68;100.00;-20891.31;5033186;28;20756;-78
2021/10/22 00:44:39;;;;;;;0.70;0.60;;;;;;;7.44;100.00;-20884.66;5034247;28;20526;-76
2021/10/22 00:47:15;;;;;;;0.70;0.60;;;;;;;7.31;100.00;-20881.06;5034478;28;20489;-76
2021/10/22 00:49:45;;;;;;;0.70;0.60;;;;;;;7.38;100.00;-20883.13;5039695;28;20921;-77
2021/10/22 00:52:24;;;;;;;0.70;0.60;;;;;;;7.43;100.00;-20884.38;5036295;28;20441;-77
2021/10/22 00:55:10;;;;;;;0.60;0.60;;;;;;;7.45;100.00;-20885.06;5034522;28;20438;-76
2021/10/22 00:57:42;;;;;;;0.70;0.60;;;;;;;7.48;100.00;-20885.91;5018736;28;20887;-76
2021/10/22 01:00:15;;;;;;;0.70;0.60;;;;;;;7.56;100.00;-20887.84;5033635;28;20465;-76
2021/10/22 01:02:53;;;;;;;0.70;0.60;;;;;;;7.50;100.00;-20886.47;5032964;28;20453;-76
2021/10/22 01:05:27;;;;;;;0.70;0.60;;;;;;;7.30;100.00;-20880.78;5033283;28;20460;-76
2021/10/22 01:08:00;;;;;;;0.70;0.60;;;;;;;7.11;100.00;-20875.78;5033103;28;20892;-77
2021/10/22 01:10:37;;;;;;;0.70;0.60;;;;;;;7.16;100.00;-20877.16;5032158;28;20456;-76
2021/10/22 01:13:07;;;;;;;0.70;0.60;;;;;;;7.12;100.00;-20876.06;5033053;28;20412;-77
2021/10/22 01:15:44;;;;;;;6.60;1.00;;;;;;;7.08;100.00;-20874.94;5035095;28;20421;-78
2021/10/22 01:18:24;;;;;;;0.70;0.70;;;;;;;7.08;100.00;-20874.94;5033523;28;20409;-77
2021/10/22 01:21:04;;;;;;;0.70;0.60;;;;;;;6.96;100.00;-20871.59;5033750;28;20497;-77
2021/10/22 01:23:39;;;;;;;0.70;0.50;;;;;;;6.95;100.00;-20871.31;5033936;28;20445;-77
2021/10/22 01:26:10;;;;;;;0.60;0.60;;;;;;;6.85;100.00;-20868.53;5032938;28;20477;-77
2021/10/22 01:28:47;;;;;;;0.70;0.60;;;;;;;6.83;100.00;-20868.00;5033502;28;20401;-77
2021/10/22 01:31:22;;;;;;;0.70;0.60;;;;;;;6.73;100.00;-20865.50;5032936;28;20920;-77
2021/10/22 01:33:53;;;;;;;0.70;0.60;;;;;;;6.76;100.00;-20866.19;5032229;28;20440;-77
2021/10/22 01:36:33;;;;;;;0.70;0.60;;;;;;;6.71;100.00;-20864.94;5032911;28;20470;-77
2021/10/22 01:39:17;;;;;;;0.70;0.60;;;;;;;6.80;100.00;-20867.16;5017310;28;20477;-78
2021/10/22 01:41:49;;;;;;;0.60;0.50;;;;;;;6.83;100.00;-20868.00;5033084;28;20946;-77
2021/10/22 01:44:27;;;;;;;0.70;0.60;;;;;;;6.81;100.00;-20867.44;5033348;28;20486;-77
2021/10/22 01:46:57;;;;;;;0.60;0.60;;;;;;;6.78;100.00;-20866.88;5032633;28;20492;-76
2021/10/22 01:49:29;;;;;;;0.60;0.60;;;;;;;6.74;100.00;-20865.63;5032350;28;20406;-76
2021/10/22 01:52:02;;;;;;;0.70;0.60;;;;;;;6.62;100.00;-20862.44;5031937;28;20441;-76
2021/10/22 01:54:32;;;;;;;0.70;0.60;;;;;;;6.58;100.00;-20861.31;5033108;28;20417;-76
2021/10/22 01:57:11;;;;;;;0.70;0.60;;;;;;;6.62;100.00;-20862.44;5034274;28;20405;-77
2021/10/22 01:59:46;;;;;;;0.70;0.60;;;;;;;6.61;100.00;-20862.16;5034508;28;20456;-76
2021/10/22 02:02:18;;;;;;;1.00;1.00;;;;;;;6.73;100.00;-20865.50;5016805;28;20452;-77
2021/10/22 02:04:52;;;;;;;0.70;0.60;;;;;;;6.72;100.00;-20865.06;5033662;28;20847;-77
2021/10/22 02:07:27;;;;;;;0.70;0.60;;;;;;;6.83;100.00;-20868.00;5032961;28;20832;-76
2021/10/22 02:09:58;;;;;;;0.70;0.60;;;;;;;6.67;100.00;-20863.69;5031940;28;20401;-77
2021/10/22 02:12:29;;;;;;;0.70;0.60;;;;;;;6.49;100.00;-20858.81;5031690;28;20479;-76
2021/10/22 02:15:11;;;;;;;0.70;0.60;;;;;;;6.51;100.00;-20859.38;5033640;28;20820;-77
2021/10/22 02:17:45;;;;;;;0.70;0.60;;;;;;;6.64;100.00;-20862.84;5032761;28;20440;-77
2021/10/22 02:20:19;;;;;;;0.70;0.60;;;;;;;6.55;100.00;-20860.47;5032262;28;20455;-78
2021/10/22 02:22:51;;;;;;;0.67;0.60;;;;;;;6.53;100.00;-20859.94;5032383;28;20474;-76
2021/10/22 02:25:23;;;;;;;0.70;0.60;;;;;;;6.68;100.00;-20864.09;5033092;28;20528;-77
2021/10/22 02:27:55;;;;;;;0.70;0.60;;;;;;;6.66;100.00;-20863.53;5031977;28;20506;-77
2021/10/22 02:30:23;;;;;;;0.70;0.67;;;;;;;6.60;100.00;-20861.88;5033448;28;20405;-77
2021/10/22 02:32:50;;;;;;;0.63;0.60;;;;;;;6.74;100.00;-20865.78;5033773;28;20516;-77
2021/10/22 02:35:17;;;;;;;0.70;0.60;;;;;;;6.71;100.00;-20864.94;5033554;28;20483;-77
2021/10/22 02:37:45;;;;;;;0.67;0.60;;;;;;;6.62;100.00;-20862.44;5032055;28;20452;-77
2021/10/22 02:40:15;;;;;;;0.70;0.60;;;;;;;6.60;100.00;-20861.75;5035931;28;20477;-78
2021/10/22 02:42:44;;;;;;;0.70;0.60;;;;;;;6.60;100.00;-20861.88;5036836;28;20512;-78
2021/10/22 02:45:12;;;;;;;0.70;0.70;;;;;;;6.51;100.00;-20859.38;5035891;28;20419;-77
2021/10/22 02:47:39;;;;;;;0.70;0.60;;;;;;;6.53;100.00;-20859.94;5035758;28;20468;-77
2021/10/22 02:50:06;;;;;;;0.70;0.60;;;;;;;6.49;100.00;-20858.81;5037877;28;20786;-77
2021/10/22 02:52:33;;;;;;;0.70;0.60;;;;;;;6.42;100.00;-20856.88;5035877;28;20866;-77
2021/10/22 02:55:04;;;;;;;0.70;0.60;;;;;;;6.47;100.00;-20858.25;5035868;28;20540;-77
2021/10/22 02:57:32;;;;;;;0.70;0.60;;;;;;;6.34;100.00;-20854.66;5035884;28;20449;-77
2021/10/22 02:59:59;;;;;;;0.70;0.70;;;;;;;6.21;100.00;-20851.19;5036700;28;20456;-77
2021/10/22 03:02:27;;;;;;;0.70;0.60;;;;;;;6.24;100.00;-20852.16;5035437;28;20475;-77
2021/10/22 03:05:00;;;;;;;0.70;0.60;;;;;;;6.26;100.00;-20852.72;5034051;28;20448;-77
2021/10/22 03:07:27;;;;;;;0.70;0.60;;;;;;;6.19;100.00;-20850.75;5048761;28;20504;-78
2021/10/22 03:09:55;;;;;;;0.70;0.60;;;;;;;6.22;100.00;-20851.59;5016639;28;20417;-78
2021/10/22 03:12:23;;;;;;;0.70;0.60;;;;;;;6.16;100.00;-20849.94;5032275;28;20191;-77
2021/10/22 03:14:52;;;;;;;0.70;0.60;;;;;;;6.01;100.00;-20845.75;5015523;28;20934;-77
2021/10/22 03:17:20;;;;;;;0.70;0.60;;;;;;;5.95;100.00;-20844.09;5016696;28;20453;-77
2021/10/22 03:19:47;;;;;;;0.70;0.60;;;;;;;5.77;100.00;-20839.34;5016718;28;20464;-77
2021/10/22 03:22:15;;;;;;;0.70;0.60;;;;;;;5.66;100.00;-20836.28;5016783;28;20449;-77
2021/10/22 03:24:42;;;;;;;0.70;0.70;;;;;;;5.73;100.00;-20838.22;5017388;28;20481;-77
2021/10/22 03:27:14;;;;;;;1.00;1.00;;;;;;;5.67;100.00;-20836.56;5017211;28;20183;-76
2021/10/22 03:29:44;;;;;;;0.70;0.60;;;;;;;5.80;100.00;-20840.03;5036117;28;20437;-76
2021/10/22 03:32:12;;;;;;;0.70;0.60;;;;;;;5.78;100.00;-20839.63;5018583;28;20484;-77
2021/10/22 03:34:40;;;;;;;0.70;0.60;;;;;;;5.75;100.00;-20838.78;5036183;28;20472;-77
2021/10/22 03:37:10;;;;;;;0.70;0.60;;;;;;;5.66;100.00;-20836.28;5036162;28;20471;-78
2021/10/22 03:39:38;;;;;;;0.70;0.60;;;;;;;5.76;100.00;-20839.06;5034814;28;20210;-77
2021/10/22 03:42:08;;;;;;;0.70;0.60;;;;;;;5.69;100.00;-20837.13;5035285;28;20417;-77
2021/10/22 03:44:35;;;;;;;0.70;0.60;;;;;;;5.71;100.00;-20837.69;5037118;28;20409;-78
2021/10/22 03:47:02;;;;;;;0.70;0.60;;;;;;;5.79;100.00;-20839.75;5036678;28;21001;-77
2021/10/22 03:49:31;;;;;;;0.70;0.60;;;;;;;5.78;100.00;-20839.47;5035793;28;20767;-77
2021/10/22 03:52:01;;;;;;;0.70;0.60;;;;;;;5.88;100.00;-20842.13;5036125;28;20514;-77
2021/10/22 03:54:28;;;;;;;0.70;0.70;;;;;;;5.80;100.00;-20840.19;5034834;28;20921;-77
2021/10/22 03:56:56;;;;;;;0.70;0.60;;;;;;;5.70;100.00;-20837.25;5034353;28;20193;-77
2021/10/22 03:59:23;;;;;;;0.70;0.60;;;;;;;5.75;100.00;-20838.78;5032768;28;20206;-78
2021/10/22 04:01:50;;;;;;;0.70;0.60;;;;;;;5.85;100.00;-20841.44;5049689;28;20288;-79
2021/10/22 04:04:18;;;;;;;0.70;0.60;;;;;;;5.96;100.00;-20844.34;5034050;28;20186;-78
2021/10/22 04:06:46;;;;;;;0.70;0.60;;;;;;;5.79;100.00;-20839.91;5035018;28;20578;-78
2021/10/22 04:09:15;;;;;;;0.70;0.60;;;;;;;5.80;100.00;-20840.19;5035932;28;20716;-77
2021/10/22 04:11:43;;;;;;;0.70;0.70;;;;;;;5.86;100.00;-20841.56;5036101;28;20221;-78
2021/10/22 04:14:12;;;;;;;0.70;0.60;;;;;;;5.88;100.00;-20842.13;5032668;28;20264;-77
2021/10/22 04:16:38;;;;;;;0.70;0.60;;;;;;;5.92;100.00;-20843.38;5035082;28;20200;-78
2021/10/22 04:19:05;;;;;;;0.70;0.60;;;;;;;5.88;100.00;-20842.28;5036228;28;20437;-78
2021/10/22 04:21:32;;;;;;;0.70;0.60;;;;;;;5.79;100.00;-20839.91;5034793;28;20186;-78
2021/10/22 04:24:01;;;;;;;0.70;0.60;;;;;;;5.71;100.00;-20837.69;5034314;28;20217;-78
2021/10/22 04:26:28;;;;;;;0.70;0.60;;;;;;;5.79;100.00;-20839.91;5035087;28;20288;-78
2021/10/22 04:28:58;;;;;;;0.70;0.60;;;;;;;5.76;100.00;-20839.06;5034076;28;20205;-78
2021/10/22 04:31:25;;;;;;;0.70;0.60;;;;;;;5.96;100.00;-20844.50;5033942;28;20197;-77
2021/10/22 04:33:53;;;;;;;0.70;0.60;;;;;;;5.90;100.00;-20842.69;5034955;28;20185;-77
2021/10/22 04:36:20;;;;;;;0.70;0.60;;;;;;;5.87;100.00;-20841.84;5035327;28;20182;-78
2021/10/22 04:41:34;;;;;;;0.70;0.60;;;;;;;5.84;100.00;-20841.00;5033841;28;20201;-78
2021/10/22 04:44:01;;;;;;;0.70;0.60;;;;;;;5.76;100.00;-20839.06;5034740;28;20190;-77
2021/10/22 04:46:29;;;;;;;2.75;1.60;;;;;;;5.65;100.00;-20835.88;5035606;28;20647;-79
2021/10/22 04:48:56;;;;;;;0.70;0.60;;;;;;;5.63;100.00;-20835.44;5033317;28;20202;-77
2021/10/22 04:51:23;;;;;;;0.70;0.60;;;;;;;5.78;100.00;-20839.47;5033886;28;20188;-77
2021/10/22 04:53:52;;;;;;;0.70;0.60;;;;;;;5.90;100.00;-20842.81;5035063;28;20771;-77
2021/10/22 04:56:19;;;;;;;0.70;0.60;;;;;;;6.10;100.00;-20848.25;5034053;28;20298;-77
2021/10/22 04:58:47;;;;;;;0.70;0.60;;;;;;;6.08;100.00;-20847.69;5032323;28;20238;-77
2021/10/22 05:01:14;;;;;;;0.70;0.60;;;;;;;6.02;100.00;-20846.03;5033555;28;20210;-77
2021/10/22 05:03:42;;;;;;;0.70;0.60;;;;;;;6.09;100.00;-20847.84;5035101;28;20175;-76
2021/10/22 05:06:10;;;;;;;0.70;0.60;;;;;;;6.14;100.00;-20849.38;5033387;28;20635;-76
2021/10/22 05:08:38;;;;;;;0.70;0.60;;;;;;;6.13;100.00;-20848.94;5016687;28;20210;-77
2021/10/22 05:11:05;;;;;;;0.70;0.60;;;;;;;6.26;100.00;-20852.72;5033458;28;20214;-77
2021/10/22 05:13:34;;;;;;;0.70;0.60;;;;;;;6.26;100.00;-20852.72;5032896;28;20216;-76
2021/10/22 05:16:03;;;;;;;0.70;0.60;;;;;;;6.28;100.00;-20853.25;5033204;28;20196;-77
2021/10/22 05:18:31;;;;;;;0.70;0.60;;;;;;;6.22;100.00;-20851.44;5034072;28;20185;-77
2021/10/22 05:21:00;;;;;;;0.70;0.60;;;;;;;6.28;100.00;-20853.25;5034441;28;20201;-76
2021/10/22 05:23:27;;;;;;;0.70;0.70;;;;;;;6.33;100.00;-20854.38;5034124;28;20218;-77
2021/10/22 05:25:54;;;;;;;0.68;0.60;;;;;;;6.25;100.00;-20852.41;5052893;28;20234;-76
2021/10/22 05:28:21;;;;;;;0.70;0.60;;;;;;;6.40;100.00;-20856.31;5014002;28;20192;-76
2021/10/22 05:30:48;;;;;;;0.70;0.60;;;;;;;6.40;100.00;-20856.31;5015436;28;20237;-76
2021/10/22 05:33:19;;;;;;;0.70;0.70;;;;;;;6.35;100.00;-20854.94;5016109;28;20187;-74
2021/10/22 05:35:46;;;;;;;0.70;0.60;;;;;;;6.36;100.00;-20855.22;5014442;28;20588;-75
2021/10/22 05:38:14;;;;;;;0.70;0.60;;;;;;;6.13;100.00;-20849.09;5013092;28;20222;-74
2021/10/22 05:40:41;;;;;;;0.70;0.60;;;;;;;6.16;100.00;-20849.78;5014135;28;20201;-76
2021/10/22 05:43:08;;;;;;;0.70;0.60;;;;;;;6.20;100.00;-20851.03;5016665;28;20414;-76
2021/10/22 05:45:35;;;;;;;0.70;0.60;;;;;;;6.20;100.00;-20851.03;5035938;28;20238;-78
2021/10/22 05:48:02;;;;;;;0.70;0.60;;;;;;;6.28;100.00;-20853.25;5033262;28;20531;-77
2021/10/22 05:50:31;;;;;;;0.70;0.60;;;;;;;6.31;100.00;-20853.81;5034266;28;20742;-77
2021/10/22 05:52:58;;;;;;;0.70;0.60;;;;;;;6.26;100.00;-20852.72;5033703;28;20268;-77
2021/10/22 05:55:24;;;;;;;0.70;0.60;;;;;;;6.22;100.00;-20851.59;5033781;28;20458;-77
2021/10/22 05:57:52;;;;;;;0.70;0.60;;;;;;;6.24;100.00;-20852.00;5035112;28;20178;-74
2021/10/22 06:00:19;;;;;;;0.70;0.70;;;;;;;6.17;100.00;-20850.19;5066160;28;20536;-78
2021/10/22 06:02:46;;;;;;;0.70;0.60;;;;;;;6.08;100.00;-20847.69;5032781;28;20639;-78
2021/10/22 06:05:14;;;;;;;0.70;0.70;;;;;;;6.20;100.00;-20851.03;5032506;28;20487;-76
2021/10/22 06:07:42;;;;;;;0.70;0.60;;;;;;;5.98;100.00;-20844.91;5065930;28;20217;-77
2021/10/22 06:10:09;;;;;;;0.70;0.60;;;;;;;6.01;100.00;-20845.75;5015942;28;20190;-77
2021/10/22 06:12:36;;;;;;;0.70;0.60;;;;;;;6.05;100.00;-20847.00;5034042;28;20174;-78
2021/10/22 06:15:04;;;;;;;0.70;0.60;;;;;;;6.05;100.00;-20846.88;5033755;28;20518;-77
2021/10/22 06:17:31;;;;;;;0.70;0.60;;;;;;;6.11;100.00;-20848.53;5034665;28;20228;-78
2021/10/22 06:20:07;;;;;;;0.70;0.60;;;;;;;6.13;100.00;-20849.09;5048875;28;20721;-79
2021/10/22 06:25:13;;;;;;;0.70;0.60;;;;;;;6.32;100.00;-20854.09;5034136;28;20186;-76
2021/10/22 06:27:41;;;;;;;0.70;0.60;;;;;;;6.41;100.00;-20856.59;5034163;28;20175;-77
2021/10/22 06:30:08;;;;;;;0.70;0.60;;;;;;;6.44;100.00;-20857.44;5033553;28;20409;-77
2021/10/22 06:32:35;;;;;;;0.70;0.60;;;;;;;6.45;100.00;-20857.84;5033079;28;20258;-77
2021/10/22 06:35:02;;;;;;;0.70;0.60;;;;;;;6.53;100.00;-20860.06;5033761;28;20237;-77
2021/10/22 06:37:29;;;;;;;0.70;0.60;;;;;;;6.63;100.00;-20862.56;5033574;28;20213;-76
2021/10/22 06:39:56;;;;;;;0.70;0.70;;;;;;;6.63;100.00;-20862.72;5032383;28;20551;-78
2021/10/22 06:42:27;;;;;;;0.70;0.60;;;;;;;6.76;100.00;-20866.31;5033109;28;20174;-75
2021/10/22 06:44:54;;;;;;;0.70;0.60;;;;;;;6.72;100.00;-20865.06;5032548;28;20482;-73
2021/10/22 06:47:21;;;;;;;0.70;0.60;;;;;;;6.74;100.00;-20865.78;5033192;28;20852;-74
2021/10/22 06:49:48;;;;;;;0.70;0.60;;;;;;;6.72;100.00;-20865.22;5033265;28;20880;-73
2021/10/22 06:52:15;;;;;;;0.63;0.60;;;;;;;6.71;100.00;-20864.94;5033441;28;20406;-74
2021/10/22 06:54:43;;;;;;;0.70;0.60;;;;;;;6.81;100.00;-20867.44;5032364;28;20468;-75
2021/10/22 06:57:10;;;;;;;0.70;0.60;;;;;;;6.84;100.00;-20868.28;5032838;28;20436;-76
2021/10/22 06:59:38;;;;;;;0.70;0.60;;;;;;;6.87;100.00;-20869.09;5031952;28;20512;-73
2021/10/22 07:02:05;;;;;;;0.70;0.60;;;;;;;6.85;100.00;-20868.69;5032607;28;20300;-74
2021/10/22 07:04:32;;;;;;;0.70;0.60;;;;;;;6.96;100.00;-20871.59;5032864;28;20409;-76
2021/10/22 07:07:15;;;;;;;0.60;0.60;;;;;;;6.96;100.00;-20871.75;5032175;28;20197;-76
2021/10/22 07:09:43;;;;;;;0.70;0.60;;;;;;;6.97;100.00;-20871.88;5033305;28;20415;-74
2021/10/22 07:12:12;;;;;;;0.70;0.60;;;;;;;7.12;100.00;-20876.06;5033082;28;21001;-75
2021/10/22 07:14:53;;;;;;;0.70;0.60;;;;;;;7.10;100.00;-20875.50;5032083;28;20451;-75
2021/10/22 07:17:20;;;;;;;0.70;0.60;;;;;;;7.17;100.00;-20877.28;5030959;28;20440;-74
2021/10/22 07:19:48;;;;;;;0.70;0.70;;;;;;;7.28;100.00;-20880.22;5030678;28;20439;-73
2021/10/22 07:22:16;;;;;;;0.70;0.60;;;;;;;7.18;100.00;-20877.72;5046825;28;20462;-75
2021/10/22 07:24:43;;;;;;;0.60;0.60;;;;;;;7.25;100.00;-20879.66;5049033;28;20423;-74
2021/10/22 07:27:11;;;;;;;0.70;0.60;;;;;;;7.30;100.00;-20880.78;5036238;28;20448;-78
2021/10/22 07:29:38;;;;;;;0.70;0.67;;;;;;;7.34;100.00;-20881.88;5037583;28;20417;-76
2021/10/22 07:32:07;;;;;;;0.70;0.60;;;;;;;7.40;100.00;-20883.53;5036116;28;20936;-75
2021/10/22 07:34:35;;;;;;;0.70;0.60;;;;;;;7.49;100.00;-20886.03;5068880;28;20420;-75
2021/10/22 07:37:02;;;;;;;0.70;0.60;;;;;;;7.63;100.00;-20889.78;5036239;28;20484;-75
2021/10/22 07:39:29;;;;;;;0.70;0.60;;;;;;;7.59;100.00;-20888.81;5052233;28;20443;-77
2021/10/22 07:42:06;;;;;;;0.70;0.60;;;;;;;7.66;100.00;-20890.78;5051527;28;20464;-76
2021/10/22 07:44:51;;;;;;;0.70;0.60;;;;;;;7.71;100.00;-20892.16;5036352;28;20441;-75
2021/10/22 07:47:22;;;;;;;0.70;0.60;;;;;;;7.77;100.00;-20893.53;5036277;28;20555;-75
2021/10/22 07:49:51;;;;;;;0.70;0.60;;;;;;;7.85;100.00;-20895.75;5037113;28;20453;-78
2021/10/22 07:52:20;;;;;;;0.70;0.60;;;;;;;7.89;100.00;-20896.88;5036520;28;20457;-75
2021/10/22 07:54:47;;;;;;;0.70;0.60;;;;;;;8.06;100.00;-20901.59;5036580;28;20778;-74
2021/10/22 07:57:15;;;;;;;0.70;0.60;;;;;;;8.24;100.00;-20906.59;5027633;28;20524;-77
2021/10/22 07:59:42;;;;;;;0.70;0.60;;;;;;;8.24;100.00;-20906.59;5037265;28;20437;-76
2021/10/22 08:02:12;;;;;;;0.70;0.60;;;;;;;8.18;100.00;-20904.91;5020958;28;20461;-75
2021/10/22 08:04:46;;;;;;;0.70;0.60;;;;;;;8.04;100.00;-20901.03;5036480;28;20421;-76
2021/10/22 08:07:14;;;;;;;0.63;0.60;;;;;;;8.20;100.00;-20905.34;5020069;28;20433;-75
2021/10/22 08:09:42;;;;;;;0.70;0.60;;;;;;;8.19;100.00;-20905.19;5036452;28;20427;-74
2021/10/22 08:12:10;;;;;;;0.70;0.60;;;;;;;8.27;100.00;-20907.13;5036788;28;20424;-76
2021/10/22 08:14:37;;;;;;;0.70;0.60;;;;;;;8.33;100.00;-20908.81;5035443;28;20445;-75
2021/10/22 08:17:05;;;;;;;0.70;0.60;;;;;;;8.27;100.00;-20907.28;5035303;28;20444;-77
2021/10/22 08:19:32;;;;;;;0.83;0.83;;;;;;;8.41;100.00;-20911.16;5034636;28;20503;-77
2021/10/22 08:24:50;;;;;;;0.70;0.60;;;;;;;8.50;100.00;-20913.38;5032038;28;20432;-76
2021/10/22 08:27:16;;;;;;;0.70;0.60;;;;;;;8.76;100.00;-20920.47;5035234;28;20452;-74
2021/10/22 08:29:43;;;;;;;0.70;0.70;;;;;;;9.06;100.00;-20928.78;5034171;28;20487;-74
2021/10/22 08:32:10;;;;;;;0.70;0.70;;;;;;;9.53;100.00;-20941.53;5035552;28;20505;-75
2021/10/22 08:34:37;;;;;;;0.70;0.60;;;;;;;9.55;100.00;-20942.06;5035441;28;20414;-75
2021/10/22 08:37:06;;;;;;;0.70;0.60;;;;;;;9.38;100.00;-20937.38;5034983;28;20426;-75
2021/10/22 08:39:33;;;;;;;0.70;0.60;;;;;;;9.17;100.00;-20931.81;5035009;28;20671;-77
2021/10/22 08:42:01;;;;;;;0.70;0.60;;;;;;;9.24;100.00;-20933.47;5034785;28;20833;-74
2021/10/22 08:44:31;;;;;;;0.70;0.60;;;;;;;9.45;100.00;-20939.31;5033047;28;20473;-77
2021/10/22 08:47:01;;;;;;;0.70;0.60;;;;;;;9.55;100.00;-20942.06;5034777;28;20427;-77
2021/10/22 08:49:28;;;;;;;0.70;0.70;;;;;;;9.55;100.00;-20942.06;5030976;28;20462;-77
2021/10/22 08:51:59;;;;;;;0.70;0.60;;;;;;;9.62;100.00;-20943.88;5024698;28;20424;-76
2021/10/22 08:54:27;;;;;;;0.70;0.60;;;;;;;9.87;100.00;-20950.81;5033471;28;20420;-77
2021/10/22 08:57:12;;;;;;;0.70;0.60;;;;;;;10.06;100.00;-20955.91;5035078;28;20421;-76
2021/10/22 08:59:42;;;;;;;0.70;0.60;;;;;;;10.64;100.00;-20971.56;5034559;28;20863;-73
2021/10/22 09:02:14;;;;;;;0.80;0.70;;;;;;;10.47;100.00;-20966.84;5066806;28;20453;-74
2021/10/22 09:04:43;;;;;;;0.70;0.60;;;;;;;10.72;100.00;-20973.63;5034412;28;20479;-72
2021/10/22 09:07:19;;;;;;;0.70;0.60;;;;;;;12.04;100.00;-21009.56;5068940;28;20428;-76
2021/10/22 09:10:05;;;;;;;0.70;0.70;;;;;;;13.22;100.00;-21041.31;5033905;28;20429;-76
2021/10/22 09:12:52;;;;;;;0.70;0.60;;;;;;;13.80;100.00;-21057.03;5033058;28;20404;-75
2021/10/22 09:15:23;;;;;;;0.70;0.60;;;;;;;13.22;100.00;-21041.31;5033325;28;20555;-74
2021/10/22 09:17:50;;;;;;;0.80;0.70;;;;;;;12.02;100.00;-21009.00;5034548;28;20437;-77
2021/10/22 09:20:17;;;;;;;0.70;0.70;;;;;;;11.75;100.00;-21001.56;5034661;28;20427;-73
2021/10/22 09:22:50;;;;;;;0.80;0.70;;;;;;;11.05;100.00;-20982.75;5032827;28;20588;-73
2021/10/22 09:25:22;;;;;;;0.80;0.80;;;;;;;11.06;100.00;-20983.03;5034118;28;20516;-73
2021/10/22 09:27:54;;;;;;;0.70;0.70;;;;;;;11.50;100.00;-20994.91;5015759;28;20440;-75
2021/10/22 09:30:31;;;;;;;0.70;0.70;;;;;;;11.31;100.00;-20989.69;5032853;28;20479;-75
2021/10/22 09:33:02;;;;;;;0.70;0.60;;;;;;;11.03;100.00;-20982.22;5032734;28;20438;-73
2021/10/22 09:35:36;;;;;;;0.70;0.60;;;;;;;11.15;100.00;-20985.25;5017139;28;20475;-75
2021/10/22 09:38:10;;;;;;;0.70;0.70;;;;;;;11.96;100.00;-21007.34;5034386;28;20456;-74
2021/10/22 09:40:40;;;;;;;0.70;0.70;;;;;;;12.53;100.00;-21022.69;5033786;28;20846;-73
2021/10/22 09:43:31;;;;;;;0.70;0.60;;;;;;;12.29;100.00;-21016.19;5031712;28;20448;-75
2021/10/22 09:46:12;;;;;;;0.70;0.60;;;;;;;11.78;100.00;-21002.38;5028582;28;20459;-74
2021/10/22 09:48:43;;;;;;;0.70;0.63;;;;;;;11.29;100.00;-20989.25;5031377;28;20772;-74
2021/10/22 09:51:26;;;;;;;0.70;0.60;;;;;;;11.68;100.00;-20999.75;5033070;28;20417;-74
2021/10/22 09:53:56;;;;;;;0.70;0.70;;;;;;;11.37;100.00;-20991.47;5032480;28;20444;-75
2021/10/22 09:56:26;;;;;;;0.70;0.70;;;;;;;11.87;100.00;-21004.75;5030762;28;20920;-73
2021/10/22 09:58:59;;;;;;;0.70;0.70;;;;;;;11.65;100.00;-20998.78;5031458;28;20435;-74
2021/10/22 10:01:29;;;;;;;0.80;0.80;;;;;;;11.68;100.00;-20999.63;5028931;28;20473;-73
2021/10/22 10:03:58;;;;;;;0.70;0.70;;;;;;;12.72;100.00;-21027.94;5031417;28;20425;-75
2021/10/22 10:06:25;;;;;;;0.70;0.60;;;;;;;13.61;100.00;-21051.78;5032338;28;20431;-75
2021/10/22 10:08:52;;;;;;;0.70;0.60;;;;;;;14.10;100.00;-21065.00;5032558;28;20545;-75
2021/10/22 10:11:19;;;;;;;0.70;0.60;;;;;;;14.27;100.00;-21069.69;5033630;28;20413;-76
2021/10/22 10:13:48;;;;;;;0.70;0.60;;;;;;;15.37;100.00;-21099.41;5032213;28;20425;-76
2021/10/22 10:16:18;;;;;;;0.70;0.60;;;;;;;14.98;100.00;-21088.81;5031627;28;20484;-76
2021/10/22 10:18:49;;;;;;;0.70;0.60;;;;;;;15.32;100.00;-21098.03;5033420;28;20435;-76
2021/10/22 10:21:21;;;;;;;0.70;0.70;;;;;;;14.39;100.00;-21072.84;5033911;28;20543;-75
2021/10/22 10:23:49;;;;;;;0.70;0.60;;;;;;;13.70;100.00;-21054.41;5032794;28;20533;-77
2021/10/22 10:26:34;;;;;;;0.70;0.60;;;;;;;13.20;100.00;-21040.75;5032965;28;20783;-77
2021/10/22 10:29:05;;;;;;;0.70;0.70;;;;;;;12.69;100.00;-21026.97;5048373;28;20416;-77
2021/10/22 10:31:36;;;;;;;0.70;0.60;;;;;;;12.63;100.00;-21025.44;5032028;28;20426;-76
2021/10/22 10:34:35;;;;;;;0.70;0.60;;;;;;;13.27;100.00;-21042.69;5033453;28;20507;-77
2021/10/22 10:37:04;;;;;;;0.70;0.70;;;;;;;13.39;100.00;-21046.00;5031923;28;20475;-73
2021/10/22 10:39:58;;;;;;;0.70;0.60;;;;;;;14.83;100.00;-21084.84;5033360;28;20492;-75
2021/10/22 10:42:32;;;;;;;0.70;0.60;;;;;;;14.71;100.00;-21081.53;5032953;28;20514;-76
2021/10/22 10:45:05;;;;;;;0.70;0.60;;;;;;;14.08;100.00;-21064.47;5032849;28;20544;-74
2021/10/22 10:47:41;;;;;;;0.70;0.70;;;;;;;13.79;100.00;-21056.75;5022309;28;20468;-73
2021/10/22 10:50:09;;;;;;;0.70;0.70;;;;;;;13.05;100.00;-21036.88;5033379;28;20416;-74
2021/10/22 10:52:44;;;;;;;0.70;0.70;;;;;;;12.88;100.00;-21032.19;5015729;28;20561;-74
2021/10/22 10:55:13;;;;;;;0.70;0.60;;;;;;;12.82;100.00;-21030.53;5032151;28;20929;-75
2021/10/22 10:57:47;;;;;;;0.70;0.60;;;;;;;13.03;100.00;-21036.34;5033312;28;20415;-76
2021/10/22 11:00:20;;;;;;;0.70;0.70;;;;;;;12.77;100.00;-21029.16;5034192;28;20451;-76
2021/10/22 11:03:18;;;;;;;0.73;0.70;;;;;;;13.53;100.00;-21049.72;5037005;28;20517;-75
2021/10/22 11:06:13;;;;;;;0.70;0.70;;;;;;;13.85;100.00;-21058.25;5035306;28;20455;-75
2021/10/22 11:08:49;;;;;;;0.70;0.60;;;;;;;13.80;100.00;-21056.88;5033387;28;20464;-74
2021/10/22 11:11:29;;;;;;;0.70;0.70;;;;;;;13.87;100.00;-21058.94;5027077;28;20435;-74
2021/10/22 11:14:09;;;;;;;0.70;0.60;;;;;;;13.98;100.00;-21061.97;5021191;28;20453;-76
2021/10/22 11:16:44;;;;;;;0.70;0.60;;;;;;;13.86;100.00;-21058.53;5041752;28;20917;-74
2021/10/22 11:19:13;;;;;;;0.70;0.60;;;;;;;13.64;100.00;-21052.75;5035952;28;20409;-72
2021/10/22 11:21:45;;;;;;;0.70;0.70;;;;;;;13.15;100.00;-21039.38;5036389;28;20972;-76
2021/10/22 11:24:17;;;;;;;0.70;0.70;;;;;;;13.46;100.00;-21047.78;5036115;28;20447;-74
2021/10/22 11:26:52;;;;;;;0.80;0.70;;;;;;;14.26;100.00;-21069.41;5034977;28;20420;-75
2021/10/22 11:29:20;;;;;;;0.70;0.60;;;;;;;14.35;100.00;-21071.75;5036225;28;20412;-73
2021/10/22 11:31:51;;;;;;;0.70;0.60;;;;;;;14.74;100.00;-21082.34;5035630;28;20500;-75
2021/10/22 11:34:21;;;;;;;0.70;0.70;;;;;;;14.04;100.00;-21063.34;5034474;28;20441;-74
2021/10/22 11:36:54;;;;;;;0.80;0.70;;;;;;;13.75;100.00;-21055.63;5015261;28;20438;-74
2021/10/22 11:39:23;;;;;;;0.70;0.70;;;;;;;13.51;100.00;-21049.31;5028051;28;21030;-76
2021/10/22 11:42:15;;;;;;;0.70;0.60;;;;;;;12.74;100.00;-21028.47;5036036;28;20460;-78
2021/10/22 11:44:47;;;;;;;0.70;0.60;;;;;;;13.31;100.00;-21043.66;5037346;28;20573;-75
2021/10/22 11:47:16;;;;;;;0.70;0.70;;;;;;;13.41;100.00;-21046.53;5035361;28;20926;-76
2021/10/22 11:49:43;;;;;;;0.70;0.70;;;;;;;12.91;100.00;-21033.03;5034270;28;20424;-76